Hannon Solo Sailor — FIIG — position and weather

sailwx.info

Track history (hours):
 
Tides and Currents Weather Stations Pressure Air Temp Water Temp Dewpoint Dewpoint Depression Visibility Wind Speed Wind Dir Waves Ship Positions

Hannon Solo Sailor

Last reported at 2017-Sep-18 13:07 UTC. Time now 2017-Sep-24 10:44 UTC.
Position N 47°43' W 003°21'.

Length 12 m.

Type: Sailing vessel. MMSI: 228038800.

Date/timePositionNaut miles runAvg speedWind from/ knotsBaromVisibWave heightAir tempDewpointWater temp
2017-Sep-18 13:07N 47°43' W 003°21'0 0.0
2017-Sep-18 12:58N 47°43' W 003°21'1 2.6
2017-Sep-18 12:30N 47°44' W 003°22'0 0.0
2017-Sep-17 15:23N 47°44' W 003°22'0 0.0
2017-Sep-17 14:59N 47°44' W 003°22'1 2.3
2017-Sep-17 14:30N 47°43' W 003°22'4 8.7
2017-Sep-17 14:00N 47°38' W 003°23'3 5.9
2017-Sep-17 13:30N 47°36' W 003°25'5 7.6
2017-Sep-17 12:49N 47°39' W 003°31'1 4.5
2017-Sep-17 12:30N 47°40' W 003°29'2 4.7
2017-Sep-17 12:00N 47°39' W 003°25'4 7.6
2017-Sep-17 11:30N 47°36' W 003°24'3 5.2
2017-Sep-17 11:00N 47°38' W 003°23'2 4.9
2017-Sep-17 10:30N 47°41' W 003°22'4 7.5
2017-Sep-17 10:00N 47°37' W 003°21'1 2.9
2017-Sep-17 09:30N 47°36' W 003°21'4 8.2
2017-Sep-17 09:00N 47°40' W 003°22'3 5.7
2017-Sep-17 08:30N 47°43' W 003°22'1 2.3
2017-Sep-17 08:00N 47°44' W 003°22'0 0.0
2017-Sep-16 14:14N 47°44' W 003°22'0 0.1
2017-Sep-16 14:00N 47°44' W 003°22'2 4.9
2017-Sep-16 13:30N 47°41' W 003°24'4 8.2
2017-Sep-16 13:00N 47°41' W 003°30'3 5.9
2017-Sep-16 12:30N 47°41' W 003°34'3 1.4
2017-Sep-16 10:43N 47°39' W 003°37'2 7.4
2017-Sep-16 10:26N 47°41' W 003°35'3 5.7
2017-Sep-16 09:59N 47°42' W 003°32'1 2.5
2017-Sep-16 09:30N 47°42' W 003°30'2 3.0
2017-Sep-16 09:00N 47°41' W 003°29'3 6.3
2017-Sep-16 08:30N 47°41' W 003°25'2 4.3
2017-Sep-16 08:00N 47°43' W 003°22'1 1.9
2017-Sep-16 07:28N 47°44' W 003°22'0 0.0
2017-Sep-16 06:58N 47°44' W 003°22'0 0.0
2017-Sep-15 14:32N 47°44' W 003°22'0 0.0
2017-Sep-15 14:29N 47°44' W 003°22'1 2.3
2017-Sep-15 14:00N 47°43' W 003°22'4 7.6
2017-Sep-15 13:30N 47°39' W 003°23'4 7.1
2017-Sep-15 13:00N 47°35' W 003°24'3 5.3
2017-Sep-15 12:30N 47°37' W 003°28'8 4.9
2017-Sep-15 10:51N 47°36' W 003°40'6 5.9
2017-Sep-15 09:51N 47°39' W 003°32'2 7.2
2017-Sep-15 09:30N 47°40' W 003°29'2 3.3
2017-Sep-15 09:00N 47°40' W 003°27'2 4.8
2017-Sep-15 08:30N 47°41' W 003°24'2 4.3
2017-Sep-15 08:00N 47°43' W 003°22'1 1.6
2017-Sep-15 07:28N 47°44' W 003°22'0 0.0
2017-Sep-14 17:08N 47°44' W 003°22'0 0.0
2017-Sep-14 16:59N 47°44' W 003°22'0 0.0
2017-Sep-14 16:29N 47°44' W 003°22'0 0.0
2017-Sep-14 15:59N 47°44' W 003°22'0 0.0
2017-Sep-14 15:29N 47°44' W 003°22'0 0.0
2017-Sep-14 14:59N 47°44' W 003°22'0 0.0
2017-Sep-14 14:29N 47°44' W 003°22'0 0.3
2017-Sep-14 14:00N 47°44' W 003°22'  
Track history (hours):
 
Tides and Currents Weather Stations Pressure Air Temp Water Temp Dewpoint Dewpoint Depression Visibility Wind Speed Wind Dir Waves Ship Positions

Hannon Solo Sailor

Last reported at 2017-Sep-18 13:07 UTC. Time now 2017-Sep-24 10:44 UTC.
Position N 47°43' W 003°21'.

Length 12 m.

Type: Sailing vessel. MMSI: 228038800.

Date/timePositionNaut miles runAvg speedWind from/ knotsBaromVisibWave heightAir tempDewpointWater temp
2017-Sep-18 13:07N 47°43' W 003°21'0 0.0
2017-Sep-18 12:58N 47°43' W 003°21'1 2.6
2017-Sep-18 12:30N 47°44' W 003°22'0 0.0
2017-Sep-17 15:23N 47°44' W 003°22'0 0.0
2017-Sep-17 14:59N 47°44' W 003°22'1 2.3
2017-Sep-17 14:30N 47°43' W 003°22'4 8.7
2017-Sep-17 14:00N 47°38' W 003°23'3 5.9
2017-Sep-17 13:30N 47°36' W 003°25'5 7.6
2017-Sep-17 12:49N 47°39' W 003°31'1 4.5
2017-Sep-17 12:30N 47°40' W 003°29'2 4.7
2017-Sep-17 12:00N 47°39' W 003°25'4 7.6
2017-Sep-17 11:30N 47°36' W 003°24'3 5.2
2017-Sep-17 11:00N 47°38' W 003°23'2 4.9
2017-Sep-17 10:30N 47°41' W 003°22'4 7.5
2017-Sep-17 10:00N 47°37' W 003°21'1 2.9
2017-Sep-17 09:30N 47°36' W 003°21'4 8.2
2017-Sep-17 09:00N 47°40' W 003°22'3 5.7
2017-Sep-17 08:30N 47°43' W 003°22'1 2.3
2017-Sep-17 08:00N 47°44' W 003°22'0 0.0
2017-Sep-16 14:14N 47°44' W 003°22'0 0.1
2017-Sep-16 14:00N 47°44' W 003°22'2 4.9
2017-Sep-16 13:30N 47°41' W 003°24'4 8.2
2017-Sep-16 13:00N 47°41' W 003°30'3 5.9
2017-Sep-16 12:30N 47°41' W 003°34'3 1.4
2017-Sep-16 10:43N 47°39' W 003°37'2 7.4
2017-Sep-16 10:26N 47°41' W 003°35'3 5.7
2017-Sep-16 09:59N 47°42' W 003°32'1 2.5
2017-Sep-16 09:30N 47°42' W 003°30'2 3.0
2017-Sep-16 09:00N 47°41' W 003°29'3 6.3
2017-Sep-16 08:30N 47°41' W 003°25'2 4.3
2017-Sep-16 08:00N 47°43' W 003°22'1 1.9
2017-Sep-16 07:28N 47°44' W 003°22'0 0.0
2017-Sep-16 06:58N 47°44' W 003°22'0 0.0
2017-Sep-15 14:32N 47°44' W 003°22'0 0.0
2017-Sep-15 14:29N 47°44' W 003°22'1 2.3
2017-Sep-15 14:00N 47°43' W 003°22'4 7.6
2017-Sep-15 13:30N 47°39' W 003°23'4 7.1
2017-Sep-15 13:00N 47°35' W 003°24'3 5.3
2017-Sep-15 12:30N 47°37' W 003°28'8 4.9
2017-Sep-15 10:51N 47°36' W 003°40'6 5.9
2017-Sep-15 09:51N 47°39' W 003°32'2 7.2
2017-Sep-15 09:30N 47°40' W 003°29'2 3.3
2017-Sep-15 09:00N 47°40' W 003°27'2 4.8
2017-Sep-15 08:30N 47°41' W 003°24'2 4.3
2017-Sep-15 08:00N 47°43' W 003°22'1 1.6
2017-Sep-15 07:28N 47°44' W 003°22'0 0.0
2017-Sep-14 17:08N 47°44' W 003°22'0 0.0
2017-Sep-14 16:59N 47°44' W 003°22'0 0.0
2017-Sep-14 16:29N 47°44' W 003°22'0 0.0
2017-Sep-14 15:59N 47°44' W 003°22'0 0.0
2017-Sep-14 15:29N 47°44' W 003°22'0 0.0
2017-Sep-14 14:59N 47°44' W 003°22'0 0.0
2017-Sep-14 14:29N 47°44' W 003°22'0 0.3
2017-Sep-14 14:00N 47°44' W 003°22'  

Dump ship's entire track history